createdAt,value
2017-08-24T00:00:45.250Z,15.10
2017-08-24T00:03:12.805Z,14.60
2017-08-24T00:05:40.330Z,14.33
2017-08-24T00:08:07.861Z,14.13
2017-08-24T00:10:35.386Z,14.20
2017-08-24T00:13:02.909Z,14.73
2017-08-24T00:15:30.463Z,15.60
2017-08-24T00:17:57.995Z,15.43
2017-08-24T00:20:25.578Z,15.90
2017-08-24T00:22:53.110Z,14.73
2017-08-24T00:25:20.633Z,15.30
2017-08-24T00:27:48.186Z,16.50
2017-08-24T00:30:15.717Z,14.63
2017-08-24T00:32:43.250Z,18.27
2017-08-24T00:35:10.774Z,16.10
2017-08-24T00:37:38.398Z,16.53
2017-08-24T00:40:06.046Z,15.13
2017-08-24T00:42:33.569Z,15.87
2017-08-24T00:45:01.098Z,16.73
2017-08-24T00:47:28.657Z,15.57
2017-08-24T00:49:56.187Z,16.53
2017-08-24T00:52:23.744Z,16.00
2017-08-24T00:54:51.269Z,15.30
2017-08-24T00:57:18.798Z,15.57
2017-08-24T00:59:46.325Z,16.23
2017-08-24T01:02:13.841Z,15.10
2017-08-24T01:04:41.391Z,16.27
2017-08-24T01:07:08.913Z,14.60
2017-08-24T01:09:36.438Z,14.83
2017-08-24T01:12:03.969Z,15.17
2017-08-24T01:14:31.557Z,14.20
2017-08-24T01:16:59.113Z,14.47
2017-08-24T01:19:26.637Z,14.63
2017-08-24T01:21:54.231Z,14.97
2017-08-24T01:24:21.760Z,14.73
2017-08-24T01:26:50.049Z,15.13
2017-08-24T01:29:17.601Z,14.70
2017-08-24T01:31:45.133Z,15.60
2017-08-24T01:34:12.663Z,15.20
2017-08-24T01:36:40.186Z,14.93
2017-08-24T01:39:07.712Z,14.40
2017-08-24T01:41:35.329Z,15.47
2017-08-24T01:44:02.861Z,16.03
2017-08-24T01:46:30.387Z,14.93
2017-08-24T01:48:57.922Z,15.57
2017-08-24T01:51:25.444Z,16.37
2017-08-24T01:53:53.032Z,16.10
2017-08-24T01:56:20.568Z,15.50
2017-08-24T01:58:48.092Z,16.50
2017-08-24T02:01:15.614Z,15.47
2017-08-24T02:03:43.142Z,15.57
2017-08-24T02:06:10.697Z,14.83
2017-08-24T02:08:38.234Z,16.57
2017-08-24T02:11:05.773Z,16.30
2017-08-24T02:13:33.306Z,16.40
2017-08-24T02:16:00.833Z,14.90
2017-08-24T02:18:28.466Z,16.33
2017-08-24T02:20:55.990Z,16.87
2017-08-24T02:23:23.521Z,16.73
2017-08-24T02:25:51.059Z,16.20
2017-08-24T02:28:18.602Z,16.77
2017-08-24T02:30:46.151Z,16.27
2017-08-24T02:33:13.673Z,16.60
2017-08-24T02:35:41.194Z,16.77
2017-08-24T02:38:08.725Z,16.33
2017-08-24T02:40:36.257Z,16.43
2017-08-24T02:43:03.814Z,16.50
2017-08-24T02:45:31.346Z,17.93
2017-08-24T02:47:58.870Z,16.73
2017-08-24T02:50:26.400Z,16.00
2017-08-24T02:52:53.923Z,16.87
2017-08-24T02:55:21.480Z,17.17
2017-08-24T02:57:49.030Z,16.93
2017-08-24T03:00:16.562Z,15.90
2017-08-24T03:02:44.109Z,16.83
2017-08-24T03:05:11.637Z,17.43
2017-08-24T03:07:39.194Z,17.90
2017-08-24T03:10:06.714Z,16.67
2017-08-24T03:12:34.238Z,16.13
2017-08-24T03:15:01.758Z,16.20
2017-08-24T03:17:29.286Z,15.83
2017-08-24T03:19:56.845Z,16.27
2017-08-24T03:22:24.374Z,16.10
2017-08-24T03:24:51.897Z,16.27
2017-08-24T03:27:19.425Z,16.30
2017-08-24T03:29:46.953Z,14.47
2017-08-24T03:32:14.513Z,15.73
2017-08-24T03:34:42.802Z,15.60
2017-08-24T03:37:10.334Z,15.57
2017-08-24T03:39:37.865Z,15.10
2017-08-24T03:42:05.394Z,14.27
2017-08-24T03:44:33.125Z,14.13
2017-08-24T03:47:00.660Z,14.90
2017-08-24T03:49:28.192Z,14.63
2017-08-24T03:51:55.718Z,14.47
2017-08-24T03:54:23.242Z,14.20
2017-08-24T03:56:50.789Z,14.57
2017-08-24T03:59:18.419Z,14.33
2017-08-24T04:01:45.953Z,15.90
2017-08-24T04:04:13.486Z,14.17
2017-08-24T04:06:41.014Z,14.50
2017-08-24T04:09:08.565Z,15.97
2017-08-24T04:11:36.089Z,16.50
2017-08-24T04:14:03.613Z,14.80
2017-08-24T04:16:31.134Z,14.60
2017-08-24T04:18:58.662Z,14.67
2017-08-24T04:21:26.217Z,14.80
2017-08-24T04:23:53.746Z,16.30
2017-08-24T04:26:22.037Z,15.60
2017-08-24T04:28:49.569Z,15.17
2017-08-24T04:31:17.089Z,16.30
2017-08-24T04:33:44.662Z,15.93
2017-08-24T04:36:12.184Z,15.20
2017-08-24T04:38:39.705Z,15.40
2017-08-24T04:41:07.236Z,17.10
2017-08-24T04:43:34.765Z,15.43
2017-08-24T04:46:02.475Z,16.27
2017-08-24T04:48:30.006Z,15.83
2017-08-24T04:50:57.536Z,15.10
2017-08-24T04:53:25.069Z,16.50
2017-08-24T04:55:52.589Z,16.00
2017-08-24T04:58:20.142Z,16.53
2017-08-24T05:00:47.669Z,16.20
2017-08-24T05:03:15.201Z,16.37
2017-08-24T05:05:42.731Z,16.43
2017-08-24T05:08:10.258Z,16.77
2017-08-24T05:10:37.810Z,17.27
2017-08-24T05:13:05.342Z,16.77
2017-08-24T05:15:33.638Z,16.90
2017-08-24T05:18:01.161Z,16.47
2017-08-24T05:20:29.474Z,16.60
2017-08-24T05:22:57.028Z,15.40
2017-08-24T05:25:24.558Z,15.23
2017-08-24T05:27:52.077Z,16.73
2017-08-24T05:30:19.598Z,16.07
2017-08-24T05:32:47.121Z,16.30
2017-08-24T05:35:14.682Z,16.33
2017-08-24T05:37:42.210Z,14.00
2017-08-24T05:40:09.729Z,14.43
2017-08-24T05:42:37.255Z,14.93
2017-08-24T05:45:04.782Z,15.27
2017-08-24T05:47:33.102Z,13.70
2017-08-24T05:50:00.635Z,14.77
2017-08-24T05:52:28.166Z,17.93
2017-08-24T05:54:55.690Z,17.13
2017-08-24T05:57:23.221Z,16.87
2017-08-24T05:59:50.790Z,14.63
2017-08-24T06:02:19.094Z,16.37
2017-08-24T06:04:46.625Z,15.90
2017-08-24T06:07:14.154Z,15.53
2017-08-24T06:09:41.698Z,14.83
2017-08-24T06:12:09.254Z,15.77
2017-08-24T06:14:36.789Z,14.97
2017-08-24T06:17:04.317Z,14.70
2017-08-24T06:19:31.850Z,15.63
2017-08-24T06:21:59.378Z,14.20
2017-08-24T06:24:27.032Z,13.47
2017-08-24T06:26:54.569Z,12.97
2017-08-24T06:29:22.098Z,13.37
2017-08-24T06:31:49.626Z,13.70
2017-08-24T06:34:17.159Z,14.87
2017-08-24T06:36:44.710Z,13.30
2017-08-24T06:39:12.233Z,16.50
2017-08-24T06:41:40.526Z,13.30
2017-08-24T06:44:08.056Z,15.00
2017-08-24T06:46:35.586Z,14.10
2017-08-24T06:49:03.139Z,13.90
2017-08-24T06:51:30.662Z,14.50
2017-08-24T06:53:58.189Z,15.00
2017-08-24T06:56:25.719Z,13.37
2017-08-24T06:58:53.248Z,13.40
2017-08-24T07:01:20.802Z,12.13
2017-08-24T07:03:48.334Z,12.80
2017-08-24T07:06:16.626Z,13.07
2017-08-24T07:08:44.155Z,13.10
2017-08-24T07:11:11.681Z,13.20
2017-08-24T07:13:39.234Z,13.93
2017-08-24T07:16:06.762Z,12.90
2017-08-24T07:18:34.285Z,24.17
2017-08-24T07:21:01.814Z,11.50
2017-08-24T07:23:29.338Z,12.00
2017-08-24T07:25:56.894Z,11.83
2017-08-24T07:28:24.424Z,11.37
2017-08-24T07:30:51.945Z,10.90
2017-08-24T07:33:19.458Z,8.83
2017-08-24T07:35:47.741Z,8.50
2017-08-24T07:38:15.285Z,8.80
2017-08-24T07:40:42.810Z,8.90
2017-08-24T07:43:10.322Z,9.03
2017-08-24T07:45:37.842Z,8.90
2017-08-24T07:48:05.358Z,8.33
2017-08-24T07:50:32.909Z,7.80
2017-08-24T07:53:00.433Z,7.70
2017-08-24T07:55:27.950Z,8.70
2017-08-24T07:57:55.466Z,7.20
2017-08-24T08:00:22.990Z,10.63
2017-08-24T08:02:50.542Z,8.23
2017-08-24T08:05:18.058Z,8.17
2017-08-24T08:07:45.582Z,8.17
2017-08-24T08:10:13.100Z,7.53
2017-08-24T08:12:40.614Z,7.80
2017-08-24T08:15:08.194Z,7.50
2017-08-24T08:17:35.711Z,7.83
2017-08-24T08:20:03.232Z,7.30
2017-08-24T08:22:30.745Z,7.00
2017-08-24T08:24:58.273Z,7.17
2017-08-24T08:27:25.818Z,7.50
2017-08-24T08:29:53.334Z,8.37
2017-08-24T08:32:20.850Z,8.17
2017-08-24T08:34:48.373Z,9.23
2017-08-24T08:37:15.890Z,7.70
2017-08-24T08:39:43.446Z,7.20
2017-08-24T08:42:10.974Z,11.77
2017-08-24T08:44:38.590Z,7.87
2017-08-24T08:47:06.044Z,8.10
2017-08-24T08:49:33.566Z,7.00
2017-08-24T08:52:01.153Z,7.67
2017-08-24T08:54:28.664Z,6.93
2017-08-24T08:56:56.190Z,7.00
2017-08-24T08:59:23.741Z,7.37
2017-08-24T09:01:51.258Z,6.80
2017-08-24T09:04:18.809Z,8.03
2017-08-24T09:06:46.337Z,6.67
2017-08-24T09:09:13.863Z,7.33
2017-08-24T09:11:41.387Z,7.53
2017-08-24T09:14:08.901Z,7.23
2017-08-24T09:16:36.422Z,7.10
2017-08-24T09:19:03.938Z,6.73
2017-08-24T09:21:31.459Z,7.40
2017-08-24T09:23:58.994Z,7.57
2017-08-24T09:26:26.526Z,6.17
2017-08-24T09:28:54.138Z,7.00
2017-08-24T09:31:21.665Z,6.67
2017-08-24T09:33:49.185Z,6.90
2017-08-24T09:36:16.807Z,6.63
2017-08-24T09:38:44.326Z,6.93
2017-08-24T09:41:11.961Z,7.63
2017-08-24T09:43:39.478Z,7.70
2017-08-24T09:46:06.992Z,6.33
2017-08-24T09:48:34.510Z,7.43
2017-08-24T09:51:02.034Z,7.27
2017-08-24T09:53:30.338Z,7.07
2017-08-24T09:55:57.863Z,6.40
2017-08-24T10:00:59.425Z,6.73
2017-08-24T10:03:26.948Z,7.20
2017-08-24T10:05:54.495Z,7.10
2017-08-24T10:08:22.019Z,6.97
2017-08-24T10:10:49.550Z,6.50
2017-08-24T10:13:17.071Z,6.83
2017-08-24T10:15:44.614Z,6.53
2017-08-24T10:18:12.166Z,6.30
2017-08-24T10:20:39.686Z,6.83
2017-08-24T10:23:07.977Z,7.10
2017-08-24T10:25:35.503Z,7.20
2017-08-24T10:28:03.025Z,6.50
2017-08-24T10:30:30.621Z,6.30
2017-08-24T10:32:58.123Z,6.33
2017-08-24T10:35:25.640Z,6.40
2017-08-24T10:37:53.159Z,6.77
2017-08-24T10:40:20.681Z,7.17
2017-08-24T10:42:48.974Z,6.80
2017-08-24T10:45:16.496Z,6.47
2017-08-24T10:47:44.022Z,6.60
2017-08-24T10:50:11.545Z,7.00
2017-08-24T10:52:39.070Z,6.83
2017-08-24T10:55:06.617Z,6.73
2017-08-24T10:57:34.145Z,6.80
2017-08-24T11:00:01.670Z,6.50
2017-08-24T11:02:29.201Z,6.60
2017-08-24T11:04:56.722Z,6.50
2017-08-24T11:07:24.250Z,7.03
2017-08-24T11:09:51.773Z,6.90
2017-08-24T11:12:19.297Z,7.13
2017-08-24T11:14:46.828Z,6.67
2017-08-24T11:17:14.357Z,6.70
2017-08-24T11:19:41.909Z,6.70
2017-08-24T11:22:09.437Z,7.67
2017-08-24T11:24:36.953Z,6.87
2017-08-24T11:27:05.238Z,6.90
2017-08-24T11:29:32.753Z,6.67
2017-08-24T11:32:00.270Z,7.40
2017-08-24T11:34:27.794Z,7.00
2017-08-24T11:36:55.316Z,6.53
2017-08-24T11:39:22.862Z,7.07
2017-08-24T11:41:50.374Z,6.70
2017-08-24T11:44:17.893Z,6.70
2017-08-24T11:46:45.469Z,6.60
2017-08-24T11:49:13.082Z,6.53
2017-08-24T11:51:40.606Z,6.60
2017-08-24T11:54:08.174Z,7.67
2017-08-24T11:56:35.706Z,6.37
2017-08-24T11:59:03.319Z,6.47
2017-08-24T12:01:30.870Z,6.00
2017-08-24T12:03:58.390Z,6.67
2017-08-24T12:06:25.913Z,6.80
2017-08-24T12:08:53.462Z,7.00
2017-08-24T12:11:20.986Z,6.47
2017-08-24T12:13:48.510Z,6.53
2017-08-24T12:16:16.066Z,6.30
2017-08-24T12:18:43.582Z,6.47
2017-08-24T12:21:11.106Z,6.40
2017-08-24T12:23:38.906Z,6.40
2017-08-24T12:26:06.426Z,6.80
2017-08-24T12:28:33.955Z,6.40
2017-08-24T12:31:01.506Z,6.80
2017-08-24T12:33:29.043Z,7.13
2017-08-24T12:35:57.332Z,6.70
2017-08-24T12:38:24.877Z,6.50
2017-08-24T12:40:52.429Z,6.50
2017-08-24T12:43:19.978Z,6.60
2017-08-24T12:45:47.510Z,7.87
2017-08-24T12:48:15.034Z,7.50
2017-08-24T12:50:42.549Z,7.57
2017-08-24T12:53:10.082Z,6.50
2017-08-24T12:55:37.650Z,6.43
2017-08-24T12:58:05.174Z,6.73
2017-08-24T13:00:32.706Z,6.50
2017-08-24T13:03:00.229Z,7.57
2017-08-24T13:05:27.761Z,6.80
2017-08-24T13:07:55.326Z,6.83
2017-08-24T13:10:22.856Z,6.97
2017-08-24T13:12:50.375Z,6.50
2017-08-24T13:15:17.899Z,7.03
2017-08-24T13:17:45.425Z,7.47
2017-08-24T13:20:12.990Z,7.30
2017-08-24T13:22:40.620Z,7.00
2017-08-24T13:25:08.137Z,6.83
2017-08-24T13:27:35.662Z,7.43
2017-08-24T13:30:03.185Z,7.23
2017-08-24T13:32:30.740Z,7.70
2017-08-24T13:34:58.267Z,7.60
2017-08-24T13:37:25.794Z,7.00
2017-08-24T13:39:53.309Z,7.43
2017-08-24T13:42:21.810Z,6.80
2017-08-24T13:44:49.369Z,6.93
2017-08-24T13:47:16.893Z,7.87
2017-08-24T13:49:44.426Z,7.10
2017-08-24T13:52:11.958Z,7.00
2017-08-24T13:54:39.478Z,9.10
2017-08-24T13:57:07.042Z,8.10
2017-08-24T13:59:34.577Z,10.20
2017-08-24T14:02:02.102Z,8.83
2017-08-24T14:04:29.623Z,7.03
2017-08-24T14:06:57.153Z,7.20
2017-08-24T14:09:24.706Z,7.27
2017-08-24T14:11:52.230Z,6.97
2017-08-24T14:14:19.754Z,7.90
2017-08-24T14:16:47.271Z,7.27
2017-08-24T14:19:14.796Z,7.40
2017-08-24T14:21:42.443Z,6.87
2017-08-24T14:24:10.030Z,6.97
2017-08-24T14:26:37.545Z,6.23
2017-08-24T14:29:05.069Z,6.63
2017-08-24T14:31:32.681Z,7.50
2017-08-24T14:34:00.443Z,7.03
2017-08-24T14:36:27.974Z,7.00
2017-08-24T14:38:55.505Z,7.17
2017-08-24T14:41:23.031Z,7.37
2017-08-24T14:43:50.581Z,8.40
2017-08-24T14:46:18.130Z,6.63
2017-08-24T14:48:45.699Z,7.47
2017-08-24T14:51:13.231Z,39.57
2017-08-24T14:53:40.760Z,9.77
2017-08-24T14:56:08.270Z,7.73
2017-08-24T14:58:35.831Z,7.90
2017-08-24T15:01:03.357Z,8.00
2017-08-24T15:03:30.877Z,8.20
2017-08-24T15:05:58.396Z,7.10
2017-08-24T15:08:25.984Z,7.83
2017-08-24T15:10:53.550Z,7.93
2017-08-24T15:13:21.075Z,7.63
2017-08-24T15:15:48.593Z,7.73
2017-08-24T15:18:16.885Z,8.20
2017-08-24T15:20:44.449Z,8.43
2017-08-24T15:23:12.013Z,8.43
2017-08-24T15:25:39.547Z,7.60
2017-08-24T15:28:07.071Z,8.07
2017-08-24T15:30:34.600Z,7.23
2017-08-24T15:33:02.133Z,63.73
2017-08-24T15:35:29.698Z,12.03
2017-08-24T15:37:57.226Z,9.25
2017-08-24T15:40:24.844Z,8.37
2017-08-24T15:42:52.369Z,7.90
2017-08-24T15:45:20.658Z,7.33
2017-08-24T15:47:49.017Z,8.80
2017-08-24T15:50:17.305Z,8.03
2017-08-24T15:52:44.826Z,7.50
2017-08-24T15:55:12.346Z,7.40
2017-08-24T15:57:39.870Z,7.90
2017-08-24T16:00:07.417Z,8.30
2017-08-24T16:02:34.941Z,8.07
2017-08-24T16:05:02.494Z,8.87
2017-08-24T16:07:30.023Z,8.80
2017-08-24T16:09:57.550Z,8.40
2017-08-24T16:12:25.869Z,10.00
2017-08-24T16:14:53.406Z,8.87
2017-08-24T16:17:20.926Z,8.87
2017-08-24T16:19:48.444Z,8.80
2017-08-24T16:22:15.962Z,9.27
2017-08-24T16:24:43.526Z,8.97
2017-08-24T16:27:11.042Z,9.40
2017-08-24T16:29:38.579Z,8.70
2017-08-24T16:32:06.098Z,8.83
2017-08-24T16:34:33.646Z,8.87
2017-08-24T16:37:01.205Z,9.80
2017-08-24T16:39:28.725Z,9.77
2017-08-24T16:41:56.249Z,11.10
2017-08-24T16:44:23.780Z,8.90
2017-08-24T16:46:51.301Z,9.23
2017-08-24T16:49:19.050Z,9.20
2017-08-24T16:51:46.574Z,8.90
2017-08-24T16:54:14.869Z,8.60
2017-08-24T16:56:42.398Z,9.47
2017-08-24T16:59:09.935Z,9.60
2017-08-24T17:01:37.481Z,9.87
2017-08-24T17:04:05.026Z,10.90
2017-08-24T17:06:32.554Z,12.47
2017-08-24T17:09:00.082Z,11.97
2017-08-24T17:11:27.602Z,9.27
2017-08-24T17:13:55.167Z,14.60
2017-08-24T17:16:22.693Z,13.20
2017-08-24T17:18:50.218Z,10.13
2017-08-24T17:21:17.749Z,10.20
2017-08-24T17:23:45.278Z,10.10
2017-08-24T17:26:12.832Z,17.57
2017-08-24T17:28:40.363Z,10.07
2017-08-24T17:31:07.897Z,14.40
2017-08-24T17:33:35.424Z,18.37
2017-08-24T17:36:02.998Z,13.97
2017-08-24T17:38:30.552Z,9.40
2017-08-24T17:40:58.079Z,9.70
2017-08-24T17:43:25.658Z,11.27
2017-08-24T17:45:53.195Z,18.53
2017-08-24T17:48:20.739Z,12.00
2017-08-24T17:50:49.073Z,14.43
2017-08-24T17:53:16.610Z,17.90
2017-08-24T17:55:44.138Z,29.50
2017-08-24T17:58:11.667Z,23.33
2017-08-24T18:00:39.198Z,22.33
2017-08-24T18:03:06.749Z,13.60
2017-08-24T18:05:34.278Z,14.70
2017-08-24T18:08:01.856Z,14.63
2017-08-24T18:10:29.383Z,13.37
2017-08-24T18:12:56.916Z,13.67
2017-08-24T18:15:24.474Z,12.63
2017-08-24T18:17:52.012Z,12.40
2017-08-24T18:20:19.655Z,12.67
2017-08-24T18:22:47.188Z,11.70
2017-08-24T18:25:14.718Z,22.27
2017-08-24T18:27:42.278Z,11.60
2017-08-24T18:30:09.809Z,11.10
2017-08-24T18:32:37.340Z,11.23
2017-08-24T18:35:04.867Z,11.43
2017-08-24T18:37:32.474Z,12.30
2017-08-24T18:40:00.022Z,11.47
2017-08-24T18:42:27.566Z,12.07
2017-08-24T18:44:55.098Z,11.17
2017-08-24T18:47:22.625Z,11.83
2017-08-24T18:49:50.162Z,13.40
2017-08-24T18:52:17.713Z,12.40
2017-08-24T18:54:45.243Z,14.10
2017-08-24T18:57:12.765Z,11.30
2017-08-24T18:59:40.294Z,12.40
2017-08-24T19:02:07.822Z,11.93
2017-08-24T19:04:35.381Z,12.63
2017-08-24T19:07:02.910Z,12.57
2017-08-24T19:09:30.434Z,17.60
2017-08-24T19:11:57.961Z,14.93
2017-08-24T19:14:25.490Z,15.77
2017-08-24T19:16:53.044Z,13.93
2017-08-24T19:19:20.569Z,12.57
2017-08-24T19:21:48.125Z,26.90
2017-08-24T19:24:15.993Z,14.07
2017-08-24T19:26:43.522Z,15.10
2017-08-24T19:29:11.077Z,13.87
2017-08-24T19:31:38.614Z,13.30
2017-08-24T19:34:06.137Z,13.40
2017-08-24T19:36:33.669Z,16.70
2017-08-24T19:39:01.201Z,13.60
2017-08-24T19:41:28.750Z,14.13
2017-08-24T19:43:56.279Z,16.83
2017-08-24T19:46:23.817Z,15.90
2017-08-24T19:48:51.363Z,20.60
2017-08-24T19:51:18.911Z,25.20
2017-08-24T19:53:46.546Z,19.90
2017-08-24T19:56:14.838Z,16.43
2017-08-24T19:58:42.383Z,16.87
2017-08-24T20:01:09.910Z,16.20
2017-08-24T20:03:37.444Z,18.00
2017-08-24T20:06:05.013Z,19.57
2017-08-24T20:08:32.539Z,21.43
2017-08-24T20:11:00.065Z,28.37
2017-08-24T20:13:27.590Z,16.83
2017-08-24T20:15:55.121Z,15.27
2017-08-24T20:18:22.682Z,17.70
2017-08-24T20:20:50.214Z,21.73
2017-08-24T20:23:17.742Z,16.73
2017-08-24T20:25:45.267Z,17.00
2017-08-24T20:28:12.802Z,16.40
2017-08-24T20:30:40.368Z,21.83
2017-08-24T20:33:07.889Z,19.33
2017-08-24T20:35:35.413Z,17.90
2017-08-24T20:38:02.939Z,18.77
2017-08-24T20:40:30.474Z,17.60
2017-08-24T20:42:58.049Z,16.33
2017-08-24T20:45:25.578Z,16.90
2017-08-24T20:47:53.141Z,17.40
2017-08-24T20:50:20.677Z,16.93
2017-08-24T20:52:48.213Z,16.30
2017-08-24T20:55:15.765Z,16.60
2017-08-24T20:57:43.289Z,17.30
2017-08-24T21:00:11.580Z,15.97
2017-08-24T21:02:39.102Z,16.97
2017-08-24T21:05:06.634Z,17.10
2017-08-24T21:07:34.194Z,17.13
2017-08-24T21:10:01.723Z,17.53
2017-08-24T21:12:29.269Z,17.60
2017-08-24T21:14:56.796Z,17.20
2017-08-24T21:17:24.326Z,16.60
2017-08-24T21:19:51.881Z,17.47
2017-08-24T21:22:19.401Z,17.90
2017-08-24T21:24:46.925Z,15.60
2017-08-24T21:27:14.450Z,16.43
2017-08-24T21:29:41.978Z,17.23
2017-08-24T21:32:09.530Z,17.63
2017-08-24T21:34:37.053Z,16.70
2017-08-24T21:37:04.586Z,16.20
2017-08-24T21:39:32.115Z,15.03
2017-08-24T21:41:59.685Z,16.00
2017-08-24T21:44:27.249Z,18.10
2017-08-24T21:46:54.778Z,14.60
2017-08-24T21:49:22.302Z,16.20
2017-08-24T21:51:49.826Z,14.30
2017-08-24T21:54:17.361Z,14.23
2017-08-24T21:56:44.911Z,15.90
2017-08-24T21:59:12.438Z,14.63
2017-08-24T22:01:39.970Z,15.00
2017-08-24T22:04:07.513Z,14.77
2017-08-24T22:06:35.043Z,15.33
2017-08-24T22:09:02.591Z,16.23
2017-08-24T22:11:30.117Z,15.47
2017-08-24T22:13:57.670Z,16.17
2017-08-24T22:16:25.203Z,14.57
2017-08-24T22:18:52.745Z,16.00
2017-08-24T22:21:20.289Z,15.33
2017-08-24T22:23:47.888Z,15.00
2017-08-24T22:26:15.418Z,15.13
2017-08-24T22:28:42.941Z,15.07
2017-08-24T22:31:10.465Z,16.20
2017-08-24T22:33:38.018Z,16.67
2017-08-24T22:36:05.546Z,17.00
2017-08-24T22:38:33.069Z,16.37
2017-08-24T22:41:00.596Z,16.67
2017-08-24T22:43:28.125Z,16.77
2017-08-24T22:45:55.678Z,16.40
2017-08-24T22:48:23.202Z,18.60
2017-08-24T22:50:50.735Z,19.97
2017-08-24T22:53:23.977Z,20.37
2017-08-24T22:55:57.141Z,20.17
2017-08-24T22:58:30.458Z,23.50
2017-08-24T23:01:03.605Z,21.10
2017-08-24T23:03:36.770Z,20.63
2017-08-24T23:06:04.294Z,21.30
2017-08-24T23:08:31.852Z,21.80
2017-08-24T23:10:59.375Z,21.70
2017-08-24T23:13:26.903Z,19.33
2017-08-24T23:15:54.437Z,21.20
2017-08-24T23:18:21.969Z,20.20
2017-08-24T23:20:49.523Z,18.93
2017-08-24T23:23:17.058Z,19.43
2017-08-24T23:25:44.592Z,20.70
2017-08-24T23:28:12.118Z,20.23
2017-08-24T23:30:39.687Z,19.23
2017-08-24T23:33:07.239Z,18.30
2017-08-24T23:35:34.762Z,18.67
2017-08-24T23:38:02.290Z,19.77
2017-08-24T23:40:29.814Z,19.23
2017-08-24T23:42:57.349Z,19.67
2017-08-24T23:45:24.902Z,18.70
2017-08-24T23:47:52.430Z,20.13
2017-08-24T23:50:19.962Z,20.47
2017-08-24T23:52:47.490Z,19.97
2017-08-24T23:55:15.024Z,21.67
2017-08-24T23:57:42.574Z,24.83
